In Rescue
 
Open Full Screen Window  High Contrast Mode
Wind Gusting 16 knots
11
June 22, 2024 9:18 PM EDT
Present Weather: Rain
Weather Information
Wind Direction
  060 °
Wind Speed
  11 kt (13 mph)
Wind Gust
  16 kt (18 mph)
Altimeter
29.68 in
Visibility
4 SM
Temperature
16° C
61° F
Dewpoint
16° C
61° F
Humidity
100%
1hr Rain Fall
00.07 in.
24hr Rain Fall
01.08 in.
Sky Condition
Overcast @ 100 ft
LIFR

METAR KMCD 230118Z AUTO 06011G16KT 4SM RA OVC001 16/16 A2968 RMK AO2 P0007 T01610161

FAA Disclaimer: The data displayed is for advisory purposes only and is not to be used for flight planning or operations.